createdAt,value
2023-03-26T00:04:56.507Z,10.8
2023-03-26T00:19:56.566Z,10.9
2023-03-26T00:34:56.489Z,10.9
2023-03-26T00:49:56.518Z,11
2023-03-26T01:04:56.461Z,11.1
2023-03-26T01:19:56.475Z,10.9
2023-03-26T01:34:56.401Z,10.6
2023-03-26T01:49:56.475Z,10.5
2023-03-26T02:04:56.419Z,10.3
2023-03-26T02:19:56.409Z,10
2023-03-26T02:34:56.399Z,10
2023-03-26T02:49:56.376Z,9.6
2023-03-26T03:04:56.310Z,9.3
2023-03-26T03:19:56.311Z,9.3
2023-03-26T03:34:56.263Z,9.3
2023-03-26T03:49:56.304Z,9.6
2023-03-26T04:04:56.224Z,10.1
2023-03-26T04:19:56.280Z,10.4
2023-03-26T04:34:56.201Z,10.8
2023-03-26T04:49:56.216Z,11
2023-03-26T05:04:56.161Z,11.2
2023-03-26T05:19:56.171Z,11.6
2023-03-26T05:34:56.122Z,11.4
2023-03-26T05:49:56.091Z,11.1
2023-03-26T06:04:56.098Z,10.8
2023-03-26T06:19:56.066Z,10.3
2023-03-26T06:34:56.038Z,9.8
2023-03-26T06:49:56.059Z,9.4
2023-03-26T07:04:55.999Z,9.2
2023-03-26T07:19:55.978Z,9
2023-03-26T07:34:56.000Z,9
2023-03-26T07:49:55.986Z,8.9
2023-03-26T08:04:56.010Z,9
2023-03-26T08:19:55.952Z,8.9
2023-03-26T08:34:55.906Z,8.4
2023-03-26T08:49:55.948Z,8.2
2023-03-26T09:04:55.873Z,8.1
2023-03-26T09:19:55.898Z,8
2023-03-26T09:34:55.841Z,8
2023-03-26T09:49:55.877Z,8.1
2023-03-26T10:04:55.884Z,8.1
2023-03-26T10:19:55.835Z,8.3
2023-03-26T10:34:55.784Z,8.8
2023-03-26T10:49:55.809Z,9.2
2023-03-26T11:04:55.740Z,9.8
2023-03-26T11:19:55.750Z,9.8
2023-03-26T11:34:55.720Z,10.2
2023-03-26T11:49:55.700Z,10.6
2023-03-26T12:04:55.806Z,10.7
2023-03-26T12:19:55.690Z,11.5
2023-03-26T12:34:55.634Z,11.7
2023-03-26T12:49:55.626Z,12
2023-03-26T13:05:05.804Z,12.3
2023-03-26T13:19:55.617Z,12.1
2023-03-26T13:34:55.564Z,10.6
2023-03-26T13:49:55.585Z,10
2023-03-26T14:04:55.523Z,10.5
2023-03-26T14:19:55.552Z,11.8
2023-03-26T14:34:55.494Z,12.3
2023-03-26T14:49:55.568Z,12.5
2023-03-26T15:04:55.442Z,13
2023-03-26T15:19:55.459Z,12.8
2023-03-26T15:34:55.408Z,12.8
2023-03-26T15:49:55.415Z,12.4
2023-03-26T16:04:55.406Z,12.5
2023-03-26T16:19:55.385Z,12.2
2023-03-26T16:34:55.327Z,12.1
2023-03-26T16:50:09.036Z,12
2023-03-26T17:04:55.382Z,11.6
2023-03-26T17:19:55.286Z,11.4
2023-03-26T17:34:55.271Z,11
2023-03-26T17:49:55.274Z,10.6
2023-03-26T18:04:55.218Z,10.2
2023-03-26T18:19:55.227Z,10
2023-03-26T18:34:55.198Z,9.4
2023-03-26T18:49:55.211Z,9
2023-03-26T19:04:55.136Z,8.6
2023-03-26T19:19:55.163Z,8.1
2023-03-26T19:34:55.117Z,7.7
2023-03-26T19:49:55.141Z,7.4
2023-03-26T20:04:55.112Z,7.3
2023-03-26T20:19:55.129Z,7.1
2023-03-26T20:34:55.096Z,7.1
2023-03-26T20:49:55.101Z,7
2023-03-26T21:04:55.055Z,6.9
2023-03-26T21:19:55.059Z,6.8
2023-03-26T21:34:58.505Z,6.8
2023-03-26T21:49:55.042Z,6.8
2023-03-26T22:04:54.987Z,6.5
2023-03-26T22:19:55.017Z,6
2023-03-26T22:34:54.951Z,5.8
2023-03-26T22:49:54.986Z,5.4
2023-03-26T23:04:54.996Z,5.1
2023-03-26T23:19:54.976Z,4.9
2023-03-26T23:34:54.926Z,4.7
2023-03-26T23:49:54.974Z,4.6
